createdAt,value
2017-12-03T00:02:13.264Z,22.50
2017-12-03T00:04:40.820Z,21.33
2017-12-03T00:07:08.448Z,24.37
2017-12-03T00:09:36.791Z,21.03
2017-12-03T00:12:05.180Z,21.90
2017-12-03T00:14:32.731Z,20.77
2017-12-03T00:17:00.332Z,24.10
2017-12-03T00:19:28.716Z,18.80
2017-12-03T00:21:56.274Z,23.77
2017-12-03T00:24:23.833Z,21.47
2017-12-03T00:26:51.392Z,23.33
2017-12-03T00:29:18.955Z,23.27
2017-12-03T00:31:46.615Z,23.27
2017-12-03T00:34:14.175Z,20.70
2017-12-03T00:36:41.732Z,20.57
2017-12-03T00:39:09.331Z,24.87
2017-12-03T00:41:36.887Z,22.20
2017-12-03T00:44:04.482Z,22.90
2017-12-03T00:46:32.043Z,22.00
2017-12-03T00:48:59.600Z,22.57
2017-12-03T00:51:27.160Z,23.30
2017-12-03T00:53:54.721Z,24.97
2017-12-03T00:56:22.300Z,22.00
2017-12-03T00:58:50.000Z,25.10
2017-12-03T01:01:18.346Z,24.10
2017-12-03T01:03:45.908Z,24.07
2017-12-03T01:06:13.468Z,22.60
2017-12-03T01:08:41.028Z,23.40
2017-12-03T01:11:08.584Z,24.27
2017-12-03T01:13:36.173Z,22.07
2017-12-03T01:16:03.789Z,22.77
2017-12-03T01:18:31.352Z,24.73
2017-12-03T01:20:59.643Z,21.77
2017-12-03T01:23:27.209Z,20.63
2017-12-03T01:25:54.775Z,22.37
2017-12-03T01:28:23.068Z,21.27
2017-12-03T01:30:50.628Z,19.90
2017-12-03T01:33:18.188Z,24.57
2017-12-03T01:35:45.749Z,24.43
2017-12-03T01:38:13.316Z,24.03
2017-12-03T01:40:40.869Z,21.50
2017-12-03T01:43:08.437Z,24.75
2017-12-03T01:45:36.001Z,23.00
2017-12-03T01:48:03.561Z,29.17
2017-12-03T01:50:31.132Z,27.73
2017-12-03T01:52:58.740Z,25.52
2017-12-03T01:55:26.298Z,24.77
2017-12-03T01:57:53.860Z,24.90
2017-12-03T02:00:21.432Z,22.55
2017-12-03T02:02:48.993Z,26.73
2017-12-03T02:05:16.569Z,25.20
2017-12-03T02:07:44.136Z,23.85
2017-12-03T02:10:11.720Z,27.17
2017-12-03T02:12:39.293Z,29.08
2017-12-03T02:15:06.856Z,25.83
2017-12-03T02:17:34.480Z,26.23
2017-12-03T02:20:02.056Z,25.60
2017-12-03T02:22:29.632Z,29.27
2017-12-03T02:24:57.208Z,26.65
2017-12-03T02:27:24.793Z,23.10
2017-12-03T02:29:52.364Z,27.73
2017-12-03T02:32:19.932Z,27.50
2017-12-03T02:34:47.503Z,24.92
2017-12-03T02:37:15.074Z,24.35
2017-12-03T02:39:43.459Z,24.55
2017-12-03T02:42:12.212Z,24.70
2017-12-03T02:44:39.780Z,28.10
2017-12-03T02:47:07.352Z,22.77
2017-12-03T02:49:34.924Z,24.17
2017-12-03T02:52:02.496Z,30.33
2017-12-03T02:54:30.068Z,26.05
2017-12-03T02:56:57.641Z,25.88
2017-12-03T02:59:25.209Z,25.50
2017-12-03T03:01:52.787Z,27.20
2017-12-03T03:04:20.356Z,25.95
2017-12-03T03:06:47.917Z,25.73
2017-12-03T03:09:15.537Z,25.85
2017-12-03T03:11:43.112Z,28.50
2017-12-03T03:14:10.683Z,27.83
2017-12-03T03:16:38.252Z,26.80
2017-12-03T03:19:05.819Z,29.67
2017-12-03T03:21:33.385Z,27.52
2017-12-03T03:24:00.948Z,27.17
2017-12-03T03:26:28.512Z,27.95
2017-12-03T03:28:56.987Z,26.52
2017-12-03T03:31:24.583Z,30.25
2017-12-03T03:33:53.052Z,31.58
2017-12-03T03:36:20.661Z,31.70
2017-12-03T03:38:48.287Z,34.45
2017-12-03T03:41:15.856Z,28.55
2017-12-03T03:43:43.432Z,30.48
2017-12-03T03:46:10.992Z,30.93
2017-12-03T03:48:38.839Z,30.33
2017-12-03T03:51:06.495Z,30.55
2017-12-03T03:53:34.961Z,28.83
2017-12-03T03:56:02.528Z,30.95
2017-12-03T03:58:30.866Z,29.63
2017-12-03T04:00:58.442Z,31.05
2017-12-03T04:03:26.826Z,33.75
2017-12-03T04:05:54.399Z,33.40
2017-12-03T04:08:21.982Z,31.85
2017-12-03T04:10:49.552Z,34.42
2017-12-03T04:13:17.112Z,30.10
2017-12-03T04:15:44.672Z,31.90
2017-12-03T04:18:12.234Z,30.73
2017-12-03T04:20:39.808Z,32.63
2017-12-03T04:23:07.372Z,34.00
2017-12-03T04:25:34.974Z,33.80
2017-12-03T04:28:02.592Z,39.05
2017-12-03T04:30:31.076Z,32.63
2017-12-03T04:32:58.640Z,31.70
2017-12-03T04:35:26.196Z,34.73
2017-12-03T04:37:53.776Z,34.92
2017-12-03T04:40:21.335Z,33.10
2017-12-03T04:42:49.658Z,30.60
2017-12-03T04:45:17.232Z,36.15
2017-12-03T04:47:45.715Z,34.70
2017-12-03T04:50:13.299Z,33.88
2017-12-03T04:52:40.868Z,36.13
2017-12-03T04:55:08.423Z,32.57
2017-12-03T04:57:35.982Z,31.03
2017-12-03T05:00:04.364Z,35.17
2017-12-03T05:02:31.936Z,34.75
2017-12-03T05:05:00.276Z,35.90
2017-12-03T05:07:27.879Z,33.63
2017-12-03T05:09:56.220Z,32.35
2017-12-03T05:12:23.781Z,35.67
2017-12-03T05:14:51.348Z,36.13
2017-12-03T05:17:19.716Z,32.77
2017-12-03T05:19:47.276Z,38.33
2017-12-03T05:22:15.696Z,35.47
2017-12-03T05:24:43.261Z,35.53
2017-12-03T05:27:10.824Z,36.40
2017-12-03T05:29:38.387Z,35.47
2017-12-03T05:32:05.965Z,37.78
2017-12-03T05:34:34.328Z,39.92
2017-12-03T05:37:01.927Z,37.83
2017-12-03T05:39:29.500Z,36.33
2017-12-03T05:41:57.086Z,34.38
2017-12-03T05:44:24.664Z,37.33
2017-12-03T05:46:52.252Z,38.08
2017-12-03T05:49:19.848Z,39.97
2017-12-03T05:51:48.227Z,36.72
2017-12-03T05:54:15.798Z,39.28
2017-12-03T05:56:44.180Z,38.90
2017-12-03T05:59:12.547Z,40.35
2017-12-03T06:01:40.128Z,38.85
2017-12-03T06:04:08.616Z,36.38
2017-12-03T06:06:36.223Z,36.25
2017-12-03T06:09:03.836Z,41.45
2017-12-03T06:11:31.412Z,34.95
2017-12-03T06:13:59.000Z,33.70
2017-12-03T06:19:00.412Z,35.17
2017-12-03T06:21:27.978Z,37.10
2017-12-03T06:23:56.349Z,35.55
2017-12-03T06:26:24.736Z,40.17
2017-12-03T06:28:52.319Z,41.40
2017-12-03T06:31:20.844Z,41.92
2017-12-03T06:33:48.415Z,40.25
2017-12-03T06:36:16.103Z,41.40
2017-12-03T06:38:43.760Z,40.67
2017-12-03T06:41:11.495Z,40.20
2017-12-03T06:43:39.139Z,40.45
2017-12-03T06:46:06.722Z,36.50
2017-12-03T06:48:34.289Z,36.35
2017-12-03T06:51:01.860Z,40.88
2017-12-03T06:53:29.428Z,37.47
2017-12-03T06:55:57.063Z,35.90
2017-12-03T06:58:24.633Z,35.55
2017-12-03T07:00:52.212Z,37.28
2017-12-03T07:03:19.884Z,36.20
2017-12-03T07:05:47.537Z,34.63
2017-12-03T07:08:15.104Z,33.70
2017-12-03T07:10:42.672Z,33.72
2017-12-03T07:13:10.276Z,33.50
2017-12-03T07:15:37.851Z,29.95
2017-12-03T07:18:05.467Z,32.97
2017-12-03T07:20:33.107Z,31.05
2017-12-03T07:23:00.680Z,29.35
2017-12-03T07:25:28.252Z,28.05
2017-12-03T07:27:56.597Z,29.58
2017-12-03T07:30:24.882Z,28.87
2017-12-03T07:32:53.225Z,27.97
2017-12-03T07:35:21.492Z,29.70
2017-12-03T07:37:49.767Z,27.45
2017-12-03T07:40:18.039Z,27.52
2017-12-03T07:42:46.548Z,29.10
2017-12-03T07:45:14.117Z,27.83
2017-12-03T07:47:41.712Z,30.05
2017-12-03T07:50:09.304Z,29.27
2017-12-03T07:52:36.875Z,29.10
2017-12-03T07:55:04.450Z,27.87
2017-12-03T07:57:32.117Z,24.67
2017-12-03T07:59:59.756Z,25.85
2017-12-03T08:02:27.334Z,25.40
2017-12-03T08:04:54.904Z,26.12
2017-12-03T08:07:22.473Z,27.60
2017-12-03T08:09:50.048Z,24.67
2017-12-03T08:12:17.619Z,25.05
2017-12-03T08:14:45.223Z,23.73
2017-12-03T08:17:12.791Z,26.20
2017-12-03T08:19:40.367Z,22.08
2017-12-03T08:22:07.936Z,23.05
2017-12-03T08:24:36.321Z,22.60
2017-12-03T08:27:03.897Z,22.75
2017-12-03T08:29:31.499Z,22.67
2017-12-03T08:31:59.108Z,21.05
2017-12-03T08:34:26.679Z,21.40
2017-12-03T08:36:54.249Z,21.52
2017-12-03T08:39:21.873Z,23.98
2017-12-03T08:41:49.434Z,20.40
2017-12-03T08:44:17.016Z,21.25
2017-12-03T08:46:44.580Z,22.33
2017-12-03T08:49:12.137Z,21.30
2017-12-03T08:51:39.740Z,20.52
2017-12-03T08:54:07.333Z,19.35
2017-12-03T08:56:35.171Z,21.95
2017-12-03T08:59:02.742Z,21.60
2017-12-03T09:01:31.225Z,20.95
2017-12-03T09:03:59.625Z,19.27
2017-12-03T09:06:27.234Z,18.95
2017-12-03T09:08:54.851Z,19.02
2017-12-03T09:11:22.420Z,19.08
2017-12-03T09:13:50.737Z,17.10
2017-12-03T09:16:19.077Z,17.20
2017-12-03T09:18:47.487Z,18.53
2017-12-03T09:21:15.052Z,18.60
2017-12-03T09:23:42.644Z,16.40
2017-12-03T09:26:10.200Z,16.10
2017-12-03T09:28:37.794Z,16.63
2017-12-03T09:31:05.356Z,15.67
2017-12-03T09:33:32.947Z,17.12
2017-12-03T09:36:00.615Z,17.42
2017-12-03T09:38:28.227Z,16.20
2017-12-03T09:40:55.832Z,16.40
2017-12-03T09:43:23.429Z,16.50
2017-12-03T09:45:51.138Z,16.40
2017-12-03T09:48:19.801Z,16.67
2017-12-03T09:50:47.384Z,12.63
2017-12-03T09:53:15.113Z,16.50
2017-12-03T09:55:43.551Z,13.63
2017-12-03T09:58:12.583Z,14.73
2017-12-03T10:00:41.921Z,14.30
2017-12-03T10:03:10.472Z,13.90
2017-12-03T10:05:38.035Z,14.60
2017-12-03T10:08:05.636Z,13.87
2017-12-03T10:10:34.007Z,13.83
2017-12-03T10:13:02.636Z,15.23
2017-12-03T10:15:30.896Z,12.90
2017-12-03T10:17:59.288Z,11.83
2017-12-03T10:20:27.648Z,15.00
2017-12-03T10:22:55.920Z,12.50
2017-12-03T10:25:23.477Z,12.60
2017-12-03T10:27:51.125Z,11.63
2017-12-03T10:30:18.701Z,12.10
2017-12-03T10:32:46.595Z,10.40
2017-12-03T10:35:14.632Z,12.63
2017-12-03T10:37:56.177Z,11.30
2017-12-03T10:40:24.444Z,13.20
2017-12-03T10:42:52.580Z,10.90
2017-12-03T10:45:21.091Z,11.90
2017-12-03T10:47:49.406Z,11.77
2017-12-03T10:50:16.987Z,10.43
2017-12-03T10:52:44.630Z,23.43
2017-12-03T10:55:12.228Z,10.40
2017-12-03T10:57:40.828Z,10.70
2017-12-03T11:00:08.463Z,10.23
2017-12-03T11:02:36.022Z,11.40
2017-12-03T11:05:03.585Z,9.47
2017-12-03T11:07:31.676Z,10.60
2017-12-03T11:10:00.268Z,9.20
2017-12-03T11:12:28.723Z,11.03
2017-12-03T11:14:56.402Z,10.13
2017-12-03T11:17:23.920Z,10.33
2017-12-03T11:19:51.537Z,10.80
2017-12-03T11:22:21.976Z,9.93
2017-12-03T11:24:51.095Z,9.93
2017-12-03T11:27:18.660Z,9.10
2017-12-03T11:29:46.219Z,11.07
2017-12-03T11:32:13.796Z,9.17
2017-12-03T11:34:41.357Z,9.93
2017-12-03T11:37:08.920Z,10.83
2017-12-03T11:39:37.152Z,10.20
2017-12-03T11:42:04.854Z,11.37
2017-12-03T11:44:32.528Z,8.97
2017-12-03T11:47:00.142Z,10.30
2017-12-03T11:49:27.744Z,8.77
2017-12-03T11:51:55.329Z,10.80
2017-12-03T11:54:22.884Z,10.37
2017-12-03T11:56:50.685Z,9.60
2017-12-03T11:59:19.365Z,11.07
2017-12-03T12:01:47.794Z,8.40
2017-12-03T12:04:15.432Z,9.50
2017-12-03T12:06:43.152Z,9.60
2017-12-03T12:09:10.766Z,9.03
2017-12-03T12:11:38.506Z,24.20
2017-12-03T12:14:06.137Z,10.30
2017-12-03T12:16:33.732Z,8.83
2017-12-03T12:19:01.400Z,9.33
2017-12-03T12:21:29.611Z,9.50
2017-12-03T12:23:57.842Z,10.60
2017-12-03T12:26:25.826Z,9.40
2017-12-03T12:28:53.477Z,11.20
2017-12-03T12:31:21.960Z,9.97
2017-12-03T12:33:49.791Z,9.40
2017-12-03T12:36:18.293Z,10.83
2017-12-03T12:38:45.979Z,11.00
2017-12-03T12:41:13.641Z,10.20
2017-12-03T12:43:41.884Z,8.50
2017-12-03T12:46:09.542Z,9.95
2017-12-03T12:48:37.124Z,9.03
2017-12-03T12:51:05.580Z,9.40
2017-12-03T12:53:53.598Z,9.80
2017-12-03T12:56:21.250Z,10.70
2017-12-03T12:58:48.813Z,9.33
2017-12-03T13:01:17.113Z,9.63
2017-12-03T13:03:44.682Z,9.60
2017-12-03T13:06:13.051Z,11.43
2017-12-03T13:08:41.408Z,10.00
2017-12-03T13:11:08.966Z,9.60
2017-12-03T13:13:36.565Z,9.70
2017-12-03T13:16:04.132Z,9.00
2017-12-03T13:18:31.700Z,10.77
2017-12-03T13:20:59.261Z,9.63
2017-12-03T13:23:26.858Z,9.60
2017-12-03T13:25:54.529Z,10.40
2017-12-03T13:28:22.944Z,9.83
2017-12-03T13:30:50.504Z,10.73
2017-12-03T13:33:18.061Z,9.80
2017-12-03T13:35:46.617Z,10.07
2017-12-03T13:38:14.188Z,10.77
2017-12-03T13:40:41.768Z,11.40
2017-12-03T13:43:09.351Z,10.33
2017-12-03T13:45:37.809Z,8.70
2017-12-03T13:48:05.370Z,8.90
2017-12-03T13:50:44.187Z,10.47
2017-12-03T13:53:13.315Z,9.57
2017-12-03T13:55:43.128Z,10.00
2017-12-03T13:58:13.579Z,9.20
2017-12-03T14:03:31.409Z,11.50
2017-12-03T14:05:59.247Z,9.70
2017-12-03T14:08:26.810Z,8.50
2017-12-03T14:10:57.868Z,8.63
2017-12-03T14:13:25.500Z,9.63
2017-12-03T14:15:53.116Z,9.10
2017-12-03T14:18:20.675Z,8.33
2017-12-03T14:20:50.497Z,8.80
2017-12-03T14:23:26.293Z,9.23
2017-12-03T14:25:53.884Z,9.97
2017-12-03T14:28:22.129Z,8.87
2017-12-03T14:30:49.713Z,8.17
2017-12-03T14:33:17.274Z,8.57
2017-12-03T14:35:44.864Z,9.33
2017-12-03T14:38:12.424Z,9.00
2017-12-03T14:40:39.984Z,9.00
2017-12-03T14:43:07.550Z,9.90
2017-12-03T14:45:35.147Z,10.10
2017-12-03T14:48:02.712Z,9.50
2017-12-03T14:50:30.277Z,9.73
2017-12-03T14:52:57.883Z,8.80
2017-12-03T14:55:25.442Z,9.30
2017-12-03T14:57:53.038Z,9.37
2017-12-03T15:00:20.596Z,8.63
2017-12-03T15:02:48.161Z,9.47
2017-12-03T15:05:15.796Z,9.60
2017-12-03T15:07:43.360Z,9.83
2017-12-03T15:10:11.803Z,9.00
2017-12-03T15:12:39.369Z,9.67
2017-12-03T15:15:06.938Z,9.23
2017-12-03T15:17:34.523Z,9.27
2017-12-03T15:20:02.189Z,9.10
2017-12-03T15:22:29.751Z,8.97
2017-12-03T15:24:57.314Z,11.30
2017-12-03T15:27:25.603Z,10.10
2017-12-03T15:29:54.068Z,9.60
2017-12-03T15:32:21.625Z,11.13
2017-12-03T15:34:49.285Z,9.30
2017-12-03T15:37:17.532Z,9.93
2017-12-03T15:39:45.101Z,10.53
2017-12-03T15:42:12.668Z,11.30
2017-12-03T15:44:40.238Z,10.10
2017-12-03T15:47:08.632Z,9.47
2017-12-03T15:49:36.193Z,9.50
2017-12-03T15:52:03.759Z,11.17
2017-12-03T15:54:32.127Z,10.30
2017-12-03T15:56:59.733Z,9.17
2017-12-03T15:59:27.310Z,12.37
2017-12-03T16:01:55.673Z,13.03
2017-12-03T16:04:23.236Z,10.67
2017-12-03T16:06:50.805Z,12.27
2017-12-03T16:09:18.376Z,11.63
2017-12-03T16:11:45.927Z,9.77
2017-12-03T16:14:22.315Z,10.70
2017-12-03T16:16:49.884Z,12.47
2017-12-03T16:19:17.563Z,11.80
2017-12-03T16:21:45.455Z,11.63
2017-12-03T16:24:13.407Z,11.77
2017-12-03T16:26:41.647Z,10.53
2017-12-03T16:29:09.387Z,10.90
2017-12-03T16:31:37.008Z,9.87
2017-12-03T16:34:04.576Z,10.30
2017-12-03T16:36:32.236Z,11.07
2017-12-03T16:38:59.844Z,11.37
2017-12-03T16:41:27.426Z,12.00
2017-12-03T16:43:54.989Z,12.77
2017-12-03T16:46:22.553Z,11.47
2017-12-03T16:48:50.143Z,13.33
2017-12-03T16:51:17.704Z,12.43
2017-12-03T16:53:45.355Z,12.40
2017-12-03T16:56:12.918Z,11.87
2017-12-03T16:58:40.488Z,11.20
2017-12-03T17:01:08.052Z,12.10
2017-12-03T17:03:35.708Z,12.77
2017-12-03T17:06:03.660Z,12.80
2017-12-03T17:08:31.487Z,12.37
2017-12-03T17:10:59.111Z,13.70
2017-12-03T17:13:26.794Z,13.80
2017-12-03T17:16:06.396Z,13.80
2017-12-03T17:18:35.119Z,14.10
2017-12-03T17:21:04.326Z,12.83
2017-12-03T17:23:42.156Z,13.60
2017-12-03T17:26:17.256Z,10.90
2017-12-03T17:28:49.233Z,13.10
2017-12-03T17:31:17.005Z,13.00
2017-12-03T17:33:44.664Z,13.40
2017-12-03T17:36:12.299Z,11.37
2017-12-03T17:38:39.884Z,14.10
2017-12-03T17:41:07.796Z,14.67
2017-12-03T17:43:35.397Z,12.70
2017-12-03T17:46:02.992Z,15.00
2017-12-03T17:48:30.650Z,14.73
2017-12-03T17:50:58.212Z,13.00
2017-12-03T17:53:25.785Z,12.80
2017-12-03T17:55:54.181Z,13.40
2017-12-03T17:58:21.752Z,14.30
2017-12-03T18:00:49.380Z,15.50
2017-12-03T18:03:17.319Z,13.83
2017-12-03T18:05:44.944Z,14.33
2017-12-03T18:08:12.544Z,14.70
2017-12-03T18:10:40.105Z,15.03
2017-12-03T18:13:08.594Z,15.13
2017-12-03T18:15:36.168Z,15.37
2017-12-03T18:18:06.057Z,14.20
2017-12-03T18:20:33.664Z,15.97
2017-12-03T18:23:01.310Z,15.53
2017-12-03T18:25:28.886Z,17.87
2017-12-03T18:27:56.577Z,16.87
2017-12-03T18:30:24.197Z,16.83
2017-12-03T18:32:51.866Z,16.43
2017-12-03T18:35:19.440Z,15.50
2017-12-03T18:37:47.014Z,17.30
2017-12-03T18:40:15.688Z,17.17
2017-12-03T18:42:43.272Z,17.03
2017-12-03T18:45:10.849Z,16.10
2017-12-03T18:47:38.416Z,16.63
2017-12-03T18:50:05.986Z,16.10
2017-12-03T18:52:33.644Z,17.73
2017-12-03T18:55:01.208Z,16.83
2017-12-03T18:57:28.772Z,18.40
2017-12-03T18:59:56.531Z,18.00
2017-12-03T19:02:24.104Z,18.90
2017-12-03T19:04:51.694Z,18.00
2017-12-03T19:07:19.303Z,18.40
2017-12-03T19:09:46.877Z,19.10
2017-12-03T19:12:14.577Z,16.80
2017-12-03T19:14:43.059Z,18.00
2017-12-03T19:17:10.678Z,17.10
2017-12-03T19:19:41.537Z,17.73
2017-12-03T19:22:20.962Z,18.13
2017-12-03T19:25:01.055Z,19.47
2017-12-03T19:27:40.461Z,17.30
2017-12-03T19:32:49.929Z,19.33
2017-12-03T19:35:34.316Z,18.23
2017-12-03T19:38:08.392Z,18.90
2017-12-03T19:40:39.794Z,20.10
2017-12-03T19:43:15.070Z,19.23
2017-12-03T19:46:09.285Z,19.60
2017-12-03T19:48:58.206Z,19.63
2017-12-03T19:51:44.456Z,16.97
2017-12-03T19:57:08.616Z,19.77
2017-12-03T19:59:36.185Z,19.03
2017-12-03T20:02:03.753Z,20.63
2017-12-03T20:04:31.436Z,19.90
2017-12-03T20:06:59.000Z,19.37
2017-12-03T20:09:26.571Z,18.17
2017-12-03T20:11:54.145Z,19.57
2017-12-03T20:14:22.804Z,18.50
2017-12-03T20:16:50.447Z,20.87
2017-12-03T20:19:19.670Z,20.93
2017-12-03T20:21:47.377Z,21.30
2017-12-03T20:24:15.300Z,21.97
2017-12-03T20:26:43.676Z,20.33
2017-12-03T20:29:11.947Z,21.63
2017-12-03T20:31:40.161Z,21.57
2017-12-03T20:34:09.332Z,19.80
2017-12-03T20:36:36.893Z,19.90
2017-12-03T20:39:07.362Z,20.73
2017-12-03T20:41:36.794Z,19.77
2017-12-03T20:44:09.118Z,21.20
2017-12-03T20:46:36.743Z,20.70
2017-12-03T20:49:05.023Z,22.57
2017-12-03T20:51:33.873Z,21.07
2017-12-03T20:54:01.964Z,23.37
2017-12-03T20:56:31.287Z,20.60
2017-12-03T20:59:00.891Z,22.00
2017-12-03T21:01:32.585Z,23.17
2017-12-03T21:04:00.333Z,22.83
2017-12-03T21:06:29.696Z,21.17
2017-12-03T21:08:57.484Z,22.57
2017-12-03T21:11:29.317Z,21.63
2017-12-03T21:14:03.234Z,25.60
2017-12-03T21:16:33.968Z,23.33
2017-12-03T21:19:06.142Z,25.17
2017-12-03T21:21:34.665Z,24.40
2017-12-03T21:24:02.814Z,23.20
2017-12-03T21:26:31.337Z,24.27
2017-12-03T21:29:00.065Z,21.93
2017-12-03T21:31:30.529Z,23.00
2017-12-03T21:33:59.202Z,24.20
2017-12-03T21:36:27.665Z,21.67
2017-12-03T21:38:55.231Z,20.80
2017-12-03T21:41:23.701Z,21.93
2017-12-03T21:43:51.917Z,22.27
2017-12-03T21:46:19.664Z,21.73
2017-12-03T21:48:47.284Z,21.43
2017-12-03T21:51:15.733Z,18.27
2017-12-03T21:53:43.304Z,21.67
2017-12-03T21:56:10.884Z,21.80
2017-12-03T21:58:39.495Z,24.60
2017-12-03T22:01:07.919Z,24.37
2017-12-03T22:03:35.489Z,25.57
2017-12-03T22:06:03.109Z,22.70
2017-12-03T22:08:30.712Z,24.03
2017-12-03T22:10:58.373Z,24.63
2017-12-03T22:13:25.992Z,27.00
2017-12-03T22:15:53.557Z,24.40
2017-12-03T22:18:21.156Z,26.20
2017-12-03T22:20:48.736Z,28.20
2017-12-03T22:23:16.340Z,26.87
2017-12-03T22:25:43.932Z,29.00
2017-12-03T22:28:12.292Z,28.37
2017-12-03T22:30:39.852Z,27.73
2017-12-03T22:33:08.330Z,26.77
2017-12-03T22:35:35.904Z,27.43
2017-12-03T22:38:03.577Z,27.30
2017-12-03T22:40:31.251Z,27.33
2017-12-03T22:42:58.820Z,28.20
2017-12-03T22:45:27.272Z,27.60
2017-12-03T22:47:54.844Z,26.27
2017-12-03T22:50:22.478Z,24.93
2017-12-03T22:52:50.085Z,25.07
2017-12-03T22:55:17.658Z,26.30
2017-12-03T22:57:45.220Z,22.97
2017-12-03T23:00:12.856Z,26.27
2017-12-03T23:02:40.423Z,25.57
2017-12-03T23:05:07.996Z,24.67
2017-12-03T23:07:35.604Z,27.40
2017-12-03T23:10:03.235Z,25.23
2017-12-03T23:12:30.805Z,26.33
2017-12-03T23:14:59.292Z,27.37
2017-12-03T23:17:26.860Z,28.17
2017-12-03T23:19:54.428Z,24.73
2017-12-03T23:22:22.032Z,25.27
2017-12-03T23:24:50.233Z,25.77
2017-12-03T23:27:18.711Z,23.13
2017-12-03T23:29:47.073Z,26.57
2017-12-03T23:32:15.563Z,25.67
2017-12-03T23:34:43.132Z,22.37
2017-12-03T23:37:10.740Z,26.20
2017-12-03T23:39:38.364Z,24.97
2017-12-03T23:42:06.003Z,22.93
2017-12-03T23:44:34.509Z,23.40
2017-12-03T23:47:02.110Z,22.80
2017-12-03T23:49:30.519Z,25.43
2017-12-03T23:51:58.855Z,24.97
2017-12-03T23:54:27.215Z,22.20
2017-12-03T23:56:54.810Z,22.13
2017-12-03T23:59:22.369Z,20.60
